Terminal Aerodrome Forecast
Issued by NWS

Home | Current Version | Previous Version | Text Only | Print | Product List | Glossary On
Versions: 1 2 3 4 5 6 7 8 9 10 11 12 13 14 15 16
366
FTUS45 KABQ 202134 AAA
TAFLVS
TAF AMD
KLVS 202134Z 2022/2118 20011KT P6SM SCT060 BKN090
     FM210000 21011KT P6SM VCSH SCT030 BKN060
     FM210200 20011KT 6SM -SHRA SCT020 BKN035
      TEMPO 2102/2106 VRB15G25KT 5SM -TSRA SCT010 BKN020CB
     FM210700 VRB05KT 6SM -SHRA BKN015 OVC030
     FM211000 20006KT P6SM BKN070=

USA.gov is the U.S. government's official web portal to all federal, state and local government web resources and services.